Spokane, Washington
Current Conditions -  °F | °C
As of 2:53 PM on Monday 20 Oct 2014 (Local Time) from KSFF Reporting Station
Clear Clear  
Wind Chill: 21°   Ceiling: Unl
Heat Index: 21°   Visibility: 10mi
Dew Point:   Wind: 7mph
Humidity: 38%   Direction: 270°W
Pressure: 29.75"   Gusts: NA
Location:  47.66°N, 117.41°W
Report Text: KSFF 202153Z 27006KT 10SM CLR 21/06 A2975 RMK AO2 SLP068 T02110061
Loading
Personal Weather Stations






























Interactive Weather Map
Tropical Storm Tracking
New forecast layout! Learn more

10-Day Weather Forecast

Advertisements
Track Severe Weather on mobile